sensor_id;sensor_type;location;lat;lon;timestamp;P1;durP1;ratioP1;P2;durP2;ratioP2
55218;SDS011;65463;43.864;20.136;2024-02-16T00:00:34;56.42;;;22.85;;
55218;SDS011;65463;43.864;20.136;2024-02-16T00:03:02;53.25;;;22.20;;
55218;SDS011;65463;43.864;20.136;2024-02-16T00:05:28;52.13;;;22.27;;
55218;SDS011;65463;43.864;20.136;2024-02-16T00:07:55;50.95;;;20.63;;
55218;SDS011;65463;43.864;20.136;2024-02-16T00:10:22;53.75;;;21.73;;
55218;SDS011;65463;43.864;20.136;2024-02-16T00:12:48;55.08;;;21.85;;
55218;SDS011;65463;43.864;20.136;2024-02-16T00:15:16;52.05;;;22.52;;
55218;SDS011;65463;43.864;20.136;2024-02-16T00:17:43;45.95;;;21.55;;
55218;SDS011;65463;43.864;20.136;2024-02-16T00:20:09;49.60;;;22.23;;
55218;SDS011;65463;43.864;20.136;2024-02-16T00:22:37;50.17;;;21.77;;
55218;SDS011;65463;43.864;20.136;2024-02-16T00:25:04;50.13;;;22.25;;
55218;SDS011;65463;43.864;20.136;2024-02-16T00:27:33;48.53;;;23.27;;
55218;SDS011;65463;43.864;20.136;2024-02-16T00:29:59;51.40;;;22.67;;
55218;SDS011;65463;43.864;20.136;2024-02-16T00:32:27;57.25;;;21.45;;
55218;SDS011;65463;43.864;20.136;2024-02-16T00:34:55;51.67;;;22.27;;
55218;SDS011;65463;43.864;20.136;2024-02-16T00:37:21;51.15;;;20.95;;
55218;SDS011;65463;43.864;20.136;2024-02-16T00:39:49;47.65;;;21.92;;
55218;SDS011;65463;43.864;20.136;2024-02-16T00:42:17;48.72;;;21.35;;
55218;SDS011;65463;43.864;20.136;2024-02-16T00:44:43;51.22;;;22.40;;
55218;SDS011;65463;43.864;20.136;2024-02-16T00:47:12;47.05;;;22.80;;
55218;SDS011;65463;43.864;20.136;2024-02-16T00:49:39;48.03;;;21.80;;
55218;SDS011;65463;43.864;20.136;2024-02-16T00:52:06;52.30;;;23.20;;
55218;SDS011;65463;43.864;20.136;2024-02-16T00:54:32;55.88;;;21.98;;
55218;SDS011;65463;43.864;20.136;2024-02-16T00:56:59;47.15;;;19.98;;
55218;SDS011;65463;43.864;20.136;2024-02-16T00:59:27;53.25;;;21.33;;
55218;SDS011;65463;43.864;20.136;2024-02-16T01:01:54;56.88;;;21.67;;
55218;SDS011;65463;43.864;20.136;2024-02-16T01:04:20;56.08;;;21.73;;
55218;SDS011;65463;43.864;20.136;2024-02-16T01:06:46;57.03;;;22.08;;
55218;SDS011;65463;43.864;20.136;2024-02-16T01:09:12;62.03;;;21.73;;
55218;SDS011;65463;43.864;20.136;2024-02-16T01:11:41;54.78;;;21.45;;
55218;SDS011;65463;43.864;20.136;2024-02-16T01:14:08;59.40;;;21.77;;
55218;SDS011;65463;43.864;20.136;2024-02-16T01:16:34;54.15;;;21.90;;
55218;SDS011;65463;43.864;20.136;2024-02-16T01:19:01;54.00;;;22.40;;
55218;SDS011;65463;43.864;20.136;2024-02-16T01:21:27;57.45;;;22.45;;
55218;SDS011;65463;43.864;20.136;2024-02-16T01:23:53;56.70;;;22.40;;
55218;SDS011;65463;43.864;20.136;2024-02-16T01:26:19;51.00;;;21.00;;
55218;SDS011;65463;43.864;20.136;2024-02-16T01:28:46;50.85;;;21.02;;
55218;SDS011;65463;43.864;20.136;2024-02-16T01:31:14;54.33;;;22.05;;
55218;SDS011;65463;43.864;20.136;2024-02-16T01:33:40;53.63;;;22.63;;
55218;SDS011;65463;43.864;20.136;2024-02-16T01:36:09;52.55;;;23.73;;
55218;SDS011;65463;43.864;20.136;2024-02-16T01:38:35;52.28;;;23.05;;
55218;SDS011;65463;43.864;20.136;2024-02-16T01:41:02;49.70;;;21.40;;
55218;SDS011;65463;43.864;20.136;2024-02-16T01:43:28;54.80;;;23.33;;
55218;SDS011;65463;43.864;20.136;2024-02-16T01:45:54;60.53;;;25.95;;
55218;SDS011;65463;43.864;20.136;2024-02-16T01:48:22;73.50;;;27.65;;
55218;SDS011;65463;43.864;20.136;2024-02-16T01:50:49;59.63;;;26.23;;
55218;SDS011;65463;43.864;20.136;2024-02-16T01:53:15;59.63;;;26.80;;
55218;SDS011;65463;43.864;20.136;2024-02-16T01:55:45;61.88;;;26.35;;
55218;SDS011;65463;43.864;20.136;2024-02-16T01:58:12;55.90;;;23.83;;
55218;SDS011;65463;43.864;20.136;2024-02-16T02:00:39;52.22;;;22.45;;
55218;SDS011;65463;43.864;20.136;2024-02-16T02:03:06;48.40;;;22.98;;
55218;SDS011;65463;43.864;20.136;2024-02-16T02:05:32;47.00;;;22.90;;
55218;SDS011;65463;43.864;20.136;2024-02-16T02:07:58;53.55;;;23.52;;
55218;SDS011;65463;43.864;20.136;2024-02-16T02:10:25;55.25;;;24.25;;
55218;SDS011;65463;43.864;20.136;2024-02-16T02:12:51;57.67;;;24.30;;
55218;SDS011;65463;43.864;20.136;2024-02-16T02:15:18;53.05;;;26.13;;
55218;SDS011;65463;43.864;20.136;2024-02-16T02:17:44;54.97;;;26.08;;
55218;SDS011;65463;43.864;20.136;2024-02-16T02:20:10;55.40;;;27.13;;
55218;SDS011;65463;43.864;20.136;2024-02-16T02:22:37;57.42;;;27.70;;
55218;SDS011;65463;43.864;20.136;2024-02-16T02:25:03;55.17;;;27.67;;
55218;SDS011;65463;43.864;20.136;2024-02-16T02:27:30;56.10;;;26.40;;
55218;SDS011;65463;43.864;20.136;2024-02-16T02:29:56;52.55;;;25.67;;
55218;SDS011;65463;43.864;20.136;2024-02-16T02:32:23;52.40;;;25.70;;
55218;SDS011;65463;43.864;20.136;2024-02-16T02:34:50;55.90;;;25.60;;
55218;SDS011;65463;43.864;20.136;2024-02-16T02:37:16;55.97;;;26.23;;
55218;SDS011;65463;43.864;20.136;2024-02-16T02:39:42;58.47;;;25.85;;
55218;SDS011;65463;43.864;20.136;2024-02-16T02:42:09;60.30;;;26.23;;
55218;SDS011;65463;43.864;20.136;2024-02-16T02:44:35;56.45;;;25.73;;
55218;SDS011;65463;43.864;20.136;2024-02-16T02:47:04;52.65;;;25.08;;
55218;SDS011;65463;43.864;20.136;2024-02-16T02:49:30;58.00;;;27.02;;
55218;SDS011;65463;43.864;20.136;2024-02-16T02:51:58;53.20;;;24.70;;
55218;SDS011;65463;43.864;20.136;2024-02-16T02:54:24;54.67;;;24.92;;
55218;SDS011;65463;43.864;20.136;2024-02-16T02:56:50;58.40;;;25.45;;
55218;SDS011;65463;43.864;20.136;2024-02-16T02:59:16;55.80;;;24.98;;
55218;SDS011;65463;43.864;20.136;2024-02-16T03:01:43;61.83;;;25.77;;
55218;SDS011;65463;43.864;20.136;2024-02-16T03:04:10;60.97;;;25.52;;
55218;SDS011;65463;43.864;20.136;2024-02-16T03:06:36;57.22;;;24.85;;
55218;SDS011;65463;43.864;20.136;2024-02-16T03:09:05;55.70;;;24.23;;
55218;SDS011;65463;43.864;20.136;2024-02-16T03:11:34;56.65;;;23.88;;
55218;SDS011;65463;43.864;20.136;2024-02-16T03:14:00;50.10;;;24.02;;
55218;SDS011;65463;43.864;20.136;2024-02-16T03:16:27;59.00;;;27.27;;
55218;SDS011;65463;43.864;20.136;2024-02-16T03:18:53;48.80;;;24.75;;
55218;SDS011;65463;43.864;20.136;2024-02-16T03:21:20;50.80;;;24.40;;
55218;SDS011;65463;43.864;20.136;2024-02-16T03:23:46;52.00;;;23.20;;
55218;SDS011;65463;43.864;20.136;2024-02-16T03:26:15;45.65;;;21.30;;
55218;SDS011;65463;43.864;20.136;2024-02-16T03:28:44;44.13;;;21.73;;
55218;SDS011;65463;43.864;20.136;2024-02-16T03:31:21;44.28;;;20.13;;
55218;SDS011;65463;43.864;20.136;2024-02-16T03:33:48;48.40;;;22.25;;
55218;SDS011;65463;43.864;20.136;2024-02-16T03:36:14;47.80;;;23.23;;
55218;SDS011;65463;43.864;20.136;2024-02-16T03:38:44;42.90;;;20.70;;
55218;SDS011;65463;43.864;20.136;2024-02-16T03:41:13;45.10;;;20.83;;
55218;SDS011;65463;43.864;20.136;2024-02-16T03:43:42;49.97;;;21.95;;
55218;SDS011;65463;43.864;20.136;2024-02-16T03:46:08;42.97;;;21.70;;
55218;SDS011;65463;43.864;20.136;2024-02-16T03:48:39;49.40;;;21.45;;
55218;SDS011;65463;43.864;20.136;2024-02-16T03:51:06;47.15;;;22.17;;
55218;SDS011;65463;43.864;20.136;2024-02-16T03:53:32;43.10;;;20.80;;
55218;SDS011;65463;43.864;20.136;2024-02-16T03:55:59;39.90;;;20.90;;
55218;SDS011;65463;43.864;20.136;2024-02-16T03:58:25;49.42;;;21.02;;
55218;SDS011;65463;43.864;20.136;2024-02-16T04:00:51;46.25;;;21.20;;
55218;SDS011;65463;43.864;20.136;2024-02-16T04:03:18;45.05;;;22.15;;
55218;SDS011;65463;43.864;20.136;2024-02-16T04:05:44;48.22;;;23.35;;
55218;SDS011;65463;43.864;20.136;2024-02-16T04:08:10;51.40;;;23.38;;
55218;SDS011;65463;43.864;20.136;2024-02-16T04:10:36;56.47;;;26.05;;
55218;SDS011;65463;43.864;20.136;2024-02-16T04:13:03;57.65;;;24.80;;
55218;SDS011;65463;43.864;20.136;2024-02-16T04:15:29;53.05;;;25.33;;
55218;SDS011;65463;43.864;20.136;2024-02-16T04:17:55;105.38;;;35.53;;
55218;SDS011;65463;43.864;20.136;2024-02-16T04:20:21;113.65;;;39.58;;
55218;SDS011;65463;43.864;20.136;2024-02-16T04:22:48;110.63;;;34.67;;
55218;SDS011;65463;43.864;20.136;2024-02-16T04:25:14;270.33;;;35.95;;
55218;SDS011;65463;43.864;20.136;2024-02-16T04:27:40;97.85;;;34.35;;
55218;SDS011;65463;43.864;20.136;2024-02-16T04:30:06;166.40;;;34.33;;
55218;SDS011;65463;43.864;20.136;2024-02-16T04:32:33;207.77;;;32.42;;
55218;SDS011;65463;43.864;20.136;2024-02-16T04:34:59;272.00;;;34.67;;
55218;SDS011;65463;43.864;20.136;2024-02-16T04:37:25;117.68;;;30.65;;
55218;SDS011;65463;43.864;20.136;2024-02-16T04:39:56;157.27;;;30.42;;
55218;SDS011;65463;43.864;20.136;2024-02-16T04:42:22;179.40;;;33.08;;
55218;SDS011;65463;43.864;20.136;2024-02-16T04:44:48;171.48;;;31.73;;
55218;SDS011;65463;43.864;20.136;2024-02-16T04:47:17;129.65;;;31.00;;
55218;SDS011;65463;43.864;20.136;2024-02-16T04:49:43;200.60;;;32.35;;
55218;SDS011;65463;43.864;20.136;2024-02-16T04:52:09;205.52;;;32.28;;
55218;SDS011;65463;43.864;20.136;2024-02-16T04:54:38;106.95;;;27.92;;
55218;SDS011;65463;43.864;20.136;2024-02-16T04:57:07;93.53;;;25.77;;
55218;SDS011;65463;43.864;20.136;2024-02-16T04:59:33;162.10;;;28.45;;
55218;SDS011;65463;43.864;20.136;2024-02-16T05:01:59;103.90;;;26.08;;
55218;SDS011;65463;43.864;20.136;2024-02-16T05:04:29;75.97;;;25.20;;
55218;SDS011;65463;43.864;20.136;2024-02-16T05:06:55;100.63;;;24.92;;
55218;SDS011;65463;43.864;20.136;2024-02-16T05:09:22;89.45;;;24.60;;
55218;SDS011;65463;43.864;20.136;2024-02-16T05:11:51;84.72;;;24.65;;
55218;SDS011;65463;43.864;20.136;2024-02-16T05:14:17;111.45;;;25.98;;
55218;SDS011;65463;43.864;20.136;2024-02-16T05:16:44;118.97;;;27.30;;
55218;SDS011;65463;43.864;20.136;2024-02-16T05:19:10;132.32;;;29.35;;
55218;SDS011;65463;43.864;20.136;2024-02-16T05:21:36;123.25;;;27.52;;
55218;SDS011;65463;43.864;20.136;2024-02-16T05:24:03;101.15;;;27.27;;
55218;SDS011;65463;43.864;20.136;2024-02-16T05:26:29;224.43;;;31.30;;
55218;SDS011;65463;43.864;20.136;2024-02-16T05:28:55;175.57;;;28.67;;
55218;SDS011;65463;43.864;20.136;2024-02-16T05:31:22;99.28;;;25.42;;
55218;SDS011;65463;43.864;20.136;2024-02-16T05:33:49;100.70;;;26.35;;
55218;SDS011;65463;43.864;20.136;2024-02-16T05:36:18;164.30;;;26.65;;
55218;SDS011;65463;43.864;20.136;2024-02-16T05:38:52;260.15;;;29.30;;
55218;SDS011;65463;43.864;20.136;2024-02-16T05:41:20;124.50;;;27.25;;
55218;SDS011;65463;43.864;20.136;2024-02-16T05:43:47;86.45;;;27.13;;
55218;SDS011;65463;43.864;20.136;2024-02-16T05:46:16;225.85;;;30.02;;
55218;SDS011;65463;43.864;20.136;2024-02-16T05:48:45;104.25;;;27.98;;
55218;SDS011;65463;43.864;20.136;2024-02-16T05:51:11;241.95;;;30.77;;
55218;SDS011;65463;43.864;20.136;2024-02-16T05:53:38;125.75;;;30.50;;
55218;SDS011;65463;43.864;20.136;2024-02-16T05:56:07;157.88;;;31.63;;
55218;SDS011;65463;43.864;20.136;2024-02-16T05:58:35;101.95;;;28.02;;
55218;SDS011;65463;43.864;20.136;2024-02-16T06:01:01;114.00;;;29.02;;
55218;SDS011;65463;43.864;20.136;2024-02-16T06:03:27;122.18;;;28.55;;
55218;SDS011;65463;43.864;20.136;2024-02-16T06:05:53;115.45;;;30.58;;
55218;SDS011;65463;43.864;20.136;2024-02-16T06:08:20;148.50;;;31.35;;
55218;SDS011;65463;43.864;20.136;2024-02-16T06:10:46;139.07;;;31.48;;
55218;SDS011;65463;43.864;20.136;2024-02-16T06:13:19;157.05;;;32.10;;
55218;SDS011;65463;43.864;20.136;2024-02-16T06:15:47;118.13;;;31.05;;
55218;SDS011;65463;43.864;20.136;2024-02-16T06:18:13;142.35;;;31.27;;
55218;SDS011;65463;43.864;20.136;2024-02-16T06:20:39;130.15;;;30.05;;
55218;SDS011;65463;43.864;20.136;2024-02-16T06:23:06;138.02;;;33.10;;
55218;SDS011;65463;43.864;20.136;2024-02-16T06:25:34;280.13;;;36.45;;
55218;SDS011;65463;43.864;20.136;2024-02-16T06:28:00;137.52;;;34.40;;
55218;SDS011;65463;43.864;20.136;2024-02-16T06:30:26;174.63;;;34.90;;
55218;SDS011;65463;43.864;20.136;2024-02-16T06:32:52;92.43;;;31.75;;
55218;SDS011;65463;43.864;20.136;2024-02-16T06:35:23;250.45;;;37.08;;
55218;SDS011;65463;43.864;20.136;2024-02-16T06:37:51;153.55;;;33.17;;
55218;SDS011;65463;43.864;20.136;2024-02-16T06:40:20;148.40;;;35.78;;
55218;SDS011;65463;43.864;20.136;2024-02-16T06:42:46;142.57;;;34.55;;
55218;SDS011;65463;43.864;20.136;2024-02-16T06:45:15;145.13;;;32.13;;
55218;SDS011;65463;43.864;20.136;2024-02-16T06:47:41;195.60;;;32.80;;
55218;SDS011;65463;43.864;20.136;2024-02-16T06:50:07;126.85;;;32.70;;
55218;SDS011;65463;43.864;20.136;2024-02-16T06:52:33;174.85;;;33.65;;
55218;SDS011;65463;43.864;20.136;2024-02-16T06:55:00;136.75;;;33.17;;
55218;SDS011;65463;43.864;20.136;2024-02-16T06:57:26;109.22;;;31.63;;
55218;SDS011;65463;43.864;20.136;2024-02-16T06:59:52;164.15;;;31.05;;
55218;SDS011;65463;43.864;20.136;2024-02-16T07:02:19;149.45;;;31.65;;
55218;SDS011;65463;43.864;20.136;2024-02-16T07:04:47;140.02;;;33.30;;
55218;SDS011;65463;43.864;20.136;2024-02-16T07:07:13;173.95;;;33.83;;
55218;SDS011;65463;43.864;20.136;2024-02-16T07:09:40;184.65;;;35.10;;
55218;SDS011;65463;43.864;20.136;2024-02-16T07:12:06;128.40;;;33.60;;
55218;SDS011;65463;43.864;20.136;2024-02-16T07:14:33;182.55;;;34.85;;
55218;SDS011;65463;43.864;20.136;2024-02-16T07:16:59;132.10;;;33.40;;
55218;SDS011;65463;43.864;20.136;2024-02-16T07:19:26;148.25;;;33.33;;
55218;SDS011;65463;43.864;20.136;2024-02-16T07:21:54;123.13;;;33.22;;
55218;SDS011;65463;43.864;20.136;2024-02-16T07:24:20;150.73;;;33.95;;
55218;SDS011;65463;43.864;20.136;2024-02-16T07:26:47;147.65;;;30.90;;
55218;SDS011;65463;43.864;20.136;2024-02-16T07:29:13;146.38;;;30.83;;
55218;SDS011;65463;43.864;20.136;2024-02-16T07:31:42;151.68;;;30.83;;
55218;SDS011;65463;43.864;20.136;2024-02-16T07:34:08;166.80;;;32.92;;
55218;SDS011;65463;43.864;20.136;2024-02-16T07:36:36;133.13;;;34.30;;
55218;SDS011;65463;43.864;20.136;2024-02-16T07:39:02;201.32;;;33.25;;
55218;SDS011;65463;43.864;20.136;2024-02-16T07:41:30;157.18;;;33.60;;
55218;SDS011;65463;43.864;20.136;2024-02-16T07:43:56;106.50;;;29.95;;
55218;SDS011;65463;43.864;20.136;2024-02-16T07:46:22;117.93;;;30.23;;
55218;SDS011;65463;43.864;20.136;2024-02-16T07:48:48;106.90;;;29.73;;
55218;SDS011;65463;43.864;20.136;2024-02-16T07:51:14;117.03;;;30.67;;
55218;SDS011;65463;43.864;20.136;2024-02-16T07:53:41;110.30;;;30.42;;
55218;SDS011;65463;43.864;20.136;2024-02-16T07:56:09;88.22;;;30.75;;
55218;SDS011;65463;43.864;20.136;2024-02-16T07:58:41;104.57;;;29.67;;
55218;SDS011;65463;43.864;20.136;2024-02-16T08:01:08;89.18;;;28.92;;
55218;SDS011;65463;43.864;20.136;2024-02-16T08:03:36;119.60;;;29.40;;
55218;SDS011;65463;43.864;20.136;2024-02-16T08:06:03;100.82;;;29.45;;
55218;SDS011;65463;43.864;20.136;2024-02-16T08:08:29;131.73;;;30.23;;
55218;SDS011;65463;43.864;20.136;2024-02-16T08:10:55;109.00;;;29.33;;
55218;SDS011;65463;43.864;20.136;2024-02-16T08:13:21;89.63;;;30.25;;
55218;SDS011;65463;43.864;20.136;2024-02-16T08:15:48;93.13;;;30.05;;
55218;SDS011;65463;43.864;20.136;2024-02-16T08:18:17;108.60;;;31.17;;
55218;SDS011;65463;43.864;20.136;2024-02-16T08:20:43;83.38;;;28.67;;
55218;SDS011;65463;43.864;20.136;2024-02-16T08:23:09;97.00;;;30.60;;
55218;SDS011;65463;43.864;20.136;2024-02-16T08:25:35;78.30;;;30.20;;
55218;SDS011;65463;43.864;20.136;2024-02-16T08:28:04;80.63;;;28.30;;
55218;SDS011;65463;43.864;20.136;2024-02-16T08:30:33;74.93;;;28.23;;
55218;SDS011;65463;43.864;20.136;2024-02-16T08:33:00;69.43;;;27.35;;
55218;SDS011;65463;43.864;20.136;2024-02-16T08:35:27;74.07;;;28.85;;
55218;SDS011;65463;43.864;20.136;2024-02-16T08:37:56;70.18;;;28.35;;
55218;SDS011;65463;43.864;20.136;2024-02-16T08:40:22;95.65;;;41.03;;
55218;SDS011;65463;43.864;20.136;2024-02-16T08:42:49;79.40;;;30.83;;
55218;SDS011;65463;43.864;20.136;2024-02-16T08:45:15;82.60;;;30.75;;
55218;SDS011;65463;43.864;20.136;2024-02-16T08:47:48;77.43;;;32.13;;
55218;SDS011;65463;43.864;20.136;2024-02-16T08:50:17;63.30;;;26.17;;
55218;SDS011;65463;43.864;20.136;2024-02-16T08:52:43;62.63;;;27.52;;
55218;SDS011;65463;43.864;20.136;2024-02-16T08:55:10;65.22;;;26.75;;
55218;SDS011;65463;43.864;20.136;2024-02-16T08:57:36;49.75;;;24.75;;
55218;SDS011;65463;43.864;20.136;2024-02-16T09:00:02;58.35;;;28.48;;
55218;SDS011;65463;43.864;20.136;2024-02-16T09:02:28;46.75;;;24.88;;
55218;SDS011;65463;43.864;20.136;2024-02-16T09:04:54;77.40;;;48.08;;
55218;SDS011;65463;43.864;20.136;2024-02-16T09:07:21;50.72;;;27.67;;
55218;SDS011;65463;43.864;20.136;2024-02-16T09:09:47;51.00;;;25.48;;
55218;SDS011;65463;43.864;20.136;2024-02-16T09:12:13;50.00;;;23.55;;
55218;SDS011;65463;43.864;20.136;2024-02-16T09:14:39;51.53;;;24.67;;
55218;SDS011;65463;43.864;20.136;2024-02-16T09:17:05;50.35;;;25.65;;
55218;SDS011;65463;43.864;20.136;2024-02-16T09:19:35;56.45;;;26.77;;
55218;SDS011;65463;43.864;20.136;2024-02-16T09:22:01;48.13;;;23.88;;
55218;SDS011;65463;43.864;20.136;2024-02-16T09:24:28;45.58;;;22.38;;
55218;SDS011;65463;43.864;20.136;2024-02-16T09:26:55;45.55;;;24.77;;
55218;SDS011;65463;43.864;20.136;2024-02-16T09:29:22;46.53;;;25.38;;
55218;SDS011;65463;43.864;20.136;2024-02-16T09:31:52;49.33;;;23.88;;
55218;SDS011;65463;43.864;20.136;2024-02-16T09:34:18;41.75;;;21.77;;
55218;SDS011;65463;43.864;20.136;2024-02-16T09:36:44;52.55;;;23.10;;
55218;SDS011;65463;43.864;20.136;2024-02-16T09:39:10;55.47;;;23.42;;
55218;SDS011;65463;43.864;20.136;2024-02-16T09:41:35;43.03;;;22.13;;
55218;SDS011;65463;43.864;20.136;2024-02-16T09:44:02;53.38;;;22.80;;
55218;SDS011;65463;43.864;20.136;2024-02-16T09:46:29;46.42;;;21.85;;
55218;SDS011;65463;43.864;20.136;2024-02-16T09:48:59;44.17;;;21.92;;
55218;SDS011;65463;43.864;20.136;2024-02-16T09:51:31;56.80;;;21.45;;
55218;SDS011;65463;43.864;20.136;2024-02-16T09:54:01;40.33;;;20.02;;
55218;SDS011;65463;43.864;20.136;2024-02-16T09:56:28;42.20;;;18.40;;
55218;SDS011;65463;43.864;20.136;2024-02-16T09:58:55;37.72;;;17.45;;
55218;SDS011;65463;43.864;20.136;2024-02-16T10:01:22;33.72;;;16.42;;
55218;SDS011;65463;43.864;20.136;2024-02-16T10:03:51;34.13;;;16.45;;
55218;SDS011;65463;43.864;20.136;2024-02-16T10:06:17;47.30;;;17.50;;
55218;SDS011;65463;43.864;20.136;2024-02-16T10:11:15;53.65;;;19.60;;
55218;SDS011;65463;43.864;20.136;2024-02-16T10:14:02;56.92;;;18.98;;
55218;SDS011;65463;43.864;20.136;2024-02-16T10:16:29;52.85;;;18.13;;
55218;SDS011;65463;43.864;20.136;2024-02-16T10:18:56;68.80;;;18.65;;
55218;SDS011;65463;43.864;20.136;2024-02-16T10:21:26;53.60;;;17.63;;
55218;SDS011;65463;43.864;20.136;2024-02-16T10:23:56;49.35;;;15.98;;
55218;SDS011;65463;43.864;20.136;2024-02-16T10:26:29;46.63;;;15.75;;
55218;SDS011;65463;43.864;20.136;2024-02-16T10:28:55;45.72;;;15.25;;
55218;SDS011;65463;43.864;20.136;2024-02-16T10:31:23;45.08;;;15.60;;
55218;SDS011;65463;43.864;20.136;2024-02-16T10:34:00;44.97;;;14.30;;
55218;SDS011;65463;43.864;20.136;2024-02-16T10:36:35;31.45;;;13.23;;
55218;SDS011;65463;43.864;20.136;2024-02-16T10:39:01;30.45;;;11.98;;
55218;SDS011;65463;43.864;20.136;2024-02-16T10:41:35;43.92;;;15.48;;
55218;SDS011;65463;43.864;20.136;2024-02-16T10:44:02;26.02;;;11.48;;
55218;SDS011;65463;43.864;20.136;2024-02-16T10:46:29;24.55;;;12.05;;
55218;SDS011;65463;43.864;20.136;2024-02-16T10:48:55;27.60;;;10.88;;
55218;SDS011;65463;43.864;20.136;2024-02-16T10:51:23;26.25;;;10.80;;
55218;SDS011;65463;43.864;20.136;2024-02-16T10:53:55;31.95;;;11.73;;
55218;SDS011;65463;43.864;20.136;2024-02-16T10:56:34;28.58;;;11.07;;
55218;SDS011;65463;43.864;20.136;2024-02-16T10:59:04;40.08;;;12.60;;
55218;SDS011;65463;43.864;20.136;2024-02-16T11:04:01;31.50;;;9.32;;
55218;SDS011;65463;43.864;20.136;2024-02-16T11:06:28;25.38;;;9.13;;
55218;SDS011;65463;43.864;20.136;2024-02-16T11:08:54;26.13;;;9.70;;
55218;SDS011;65463;43.864;20.136;2024-02-16T11:11:32;26.52;;;9.02;;
55218;SDS011;65463;43.864;20.136;2024-02-16T11:14:01;31.02;;;9.63;;
55218;SDS011;65463;43.864;20.136;2024-02-16T11:16:28;26.75;;;9.25;;
55218;SDS011;65463;43.864;20.136;2024-02-16T11:18:54;21.77;;;9.00;;
55218;SDS011;65463;43.864;20.136;2024-02-16T11:21:22;17.30;;;7.68;;
55218;SDS011;65463;43.864;20.136;2024-02-16T11:23:48;21.67;;;8.23;;
55218;SDS011;65463;43.864;20.136;2024-02-16T11:26:15;24.08;;;8.68;;
55218;SDS011;65463;43.864;20.136;2024-02-16T11:28:43;22.77;;;7.70;;
55218;SDS011;65463;43.864;20.136;2024-02-16T11:31:09;20.20;;;7.53;;
55218;SDS011;65463;43.864;20.136;2024-02-16T11:33:35;16.45;;;6.63;;
55218;SDS011;65463;43.864;20.136;2024-02-16T11:36:02;16.73;;;6.15;;
55218;SDS011;65463;43.864;20.136;2024-02-16T11:38:33;19.05;;;6.93;;
55218;SDS011;65463;43.864;20.136;2024-02-16T11:41:03;16.10;;;6.35;;
55218;SDS011;65463;43.864;20.136;2024-02-16T11:43:30;20.63;;;6.30;;
55218;SDS011;65463;43.864;20.136;2024-02-16T11:45:59;21.80;;;7.10;;
55218;SDS011;65463;43.864;20.136;2024-02-16T11:48:36;20.25;;;7.00;;
55218;SDS011;65463;43.864;20.136;2024-02-16T11:51:03;19.27;;;6.60;;
55218;SDS011;65463;43.864;20.136;2024-02-16T11:53:29;15.43;;;5.70;;
55218;SDS011;65463;43.864;20.136;2024-02-16T11:55:56;15.23;;;5.90;;
55218;SDS011;65463;43.864;20.136;2024-02-16T11:58:22;27.05;;;8.18;;
55218;SDS011;65463;43.864;20.136;2024-02-16T12:00:49;17.20;;;5.30;;
55218;SDS011;65463;43.864;20.136;2024-02-16T12:03:26;12.63;;;4.57;;
55218;SDS011;65463;43.864;20.136;2024-02-16T12:05:57;8.80;;;4.10;;
55218;SDS011;65463;43.864;20.136;2024-02-16T12:08:24;13.55;;;4.88;;
55218;SDS011;65463;43.864;20.136;2024-02-16T12:10:57;13.48;;;5.68;;
55218;SDS011;65463;43.864;20.136;2024-02-16T12:13:22;14.60;;;5.25;;
55218;SDS011;65463;43.864;20.136;2024-02-16T12:15:49;14.32;;;4.40;;
55218;SDS011;65463;43.864;20.136;2024-02-16T12:18:23;16.83;;;4.43;;
55218;SDS011;65463;43.864;20.136;2024-02-16T12:20:59;13.43;;;5.25;;
55218;SDS011;65463;43.864;20.136;2024-02-16T12:23:31;13.27;;;3.80;;
55218;SDS011;65463;43.864;20.136;2024-02-16T12:26:01;8.52;;;3.45;;
55218;SDS011;65463;43.864;20.136;2024-02-16T12:28:28;15.93;;;6.32;;
55218;SDS011;65463;43.864;20.136;2024-02-16T12:33:23;11.45;;;4.43;;
55218;SDS011;65463;43.864;20.136;2024-02-16T12:35:49;5.97;;;2.50;;
55218;SDS011;65463;43.864;20.136;2024-02-16T12:40:48;5.75;;;2.28;;
55218;SDS011;65463;43.864;20.136;2024-02-16T12:43:15;8.52;;;3.30;;
55218;SDS011;65463;43.864;20.136;2024-02-16T12:45:41;31.40;;;13.88;;
55218;SDS011;65463;43.864;20.136;2024-02-16T12:48:17;29.30;;;11.95;;
55218;SDS011;65463;43.864;20.136;2024-02-16T12:50:44;32.65;;;14.90;;
55218;SDS011;65463;43.864;20.136;2024-02-16T12:53:11;6.63;;;3.10;;
55218;SDS011;65463;43.864;20.136;2024-02-16T12:55:37;5.65;;;3.20;;
55218;SDS011;65463;43.864;20.136;2024-02-16T12:58:03;10.25;;;4.35;;
55218;SDS011;65463;43.864;20.136;2024-02-16T13:00:29;6.93;;;3.10;;
55218;SDS011;65463;43.864;20.136;2024-02-16T13:02:55;10.82;;;4.70;;
55218;SDS011;65463;43.864;20.136;2024-02-16T13:05:21;10.40;;;5.22;;
55218;SDS011;65463;43.864;20.136;2024-02-16T13:07:47;10.63;;;5.40;;
55218;SDS011;65463;43.864;20.136;2024-02-16T13:10:14;11.23;;;6.28;;
55218;SDS011;65463;43.864;20.136;2024-02-16T13:12:39;9.43;;;5.80;;
55218;SDS011;65463;43.864;20.136;2024-02-16T13:15:08;12.80;;;6.40;;
55218;SDS011;65463;43.864;20.136;2024-02-16T13:17:34;14.27;;;6.55;;
55218;SDS011;65463;43.864;20.136;2024-02-16T13:20:00;10.77;;;6.57;;
55218;SDS011;65463;43.864;20.136;2024-02-16T13:22:37;10.52;;;7.03;;
55218;SDS011;65463;43.864;20.136;2024-02-16T13:25:04;9.65;;;5.97;;
55218;SDS011;65463;43.864;20.136;2024-02-16T13:27:34;10.15;;;6.85;;
55218;SDS011;65463;43.864;20.136;2024-02-16T13:30:03;14.68;;;9.55;;
55218;SDS011;65463;43.864;20.136;2024-02-16T13:32:32;19.40;;;10.90;;
55218;SDS011;65463;43.864;20.136;2024-02-16T13:34:58;16.98;;;10.57;;
55218;SDS011;65463;43.864;20.136;2024-02-16T13:37:24;19.80;;;11.60;;
55218;SDS011;65463;43.864;20.136;2024-02-16T13:39:50;10.40;;;6.88;;
55218;SDS011;65463;43.864;20.136;2024-02-16T13:42:17;9.98;;;6.63;;
55218;SDS011;65463;43.864;20.136;2024-02-16T13:44:44;12.00;;;7.18;;
55218;SDS011;65463;43.864;20.136;2024-02-16T13:47:10;12.75;;;8.30;;
55218;SDS011;65463;43.864;20.136;2024-02-16T13:49:36;11.82;;;6.47;;
55218;SDS011;65463;43.864;20.136;2024-02-16T13:52:02;10.82;;;6.90;;
55218;SDS011;65463;43.864;20.136;2024-02-16T13:54:29;9.65;;;6.35;;
55218;SDS011;65463;43.864;20.136;2024-02-16T13:56:55;8.55;;;5.47;;
55218;SDS011;65463;43.864;20.136;2024-02-16T13:59:21;10.63;;;5.93;;
55218;SDS011;65463;43.864;20.136;2024-02-16T14:01:47;13.70;;;7.82;;
55218;SDS011;65463;43.864;20.136;2024-02-16T14:04:14;16.10;;;8.00;;
55218;SDS011;65463;43.864;20.136;2024-02-16T14:06:40;13.68;;;7.68;;
55218;SDS011;65463;43.864;20.136;2024-02-16T14:09:06;15.32;;;8.43;;
55218;SDS011;65463;43.864;20.136;2024-02-16T14:11:36;18.48;;;9.90;;
55218;SDS011;65463;43.864;20.136;2024-02-16T14:14:02;13.85;;;7.43;;
55218;SDS011;65463;43.864;20.136;2024-02-16T14:16:28;16.02;;;8.30;;
55218;SDS011;65463;43.864;20.136;2024-02-16T14:18:55;17.23;;;9.55;;